• Join FlightAware (Why Join?)
  • Login
  • US Flag 
07:19AM EDT


 

Airport Tracker/Info


-or-


 

Live Flight TrackerFlight Track Log ✈ SKW5510 ✈ 26-Apr-2013 ✈ KTUL - KORD

Flight Track Log - Related Links

Times and Time Zones

All times are in EDT time to prevent confusion due to time zone crossing. See the SKW5510 flight status page for this flight to view local times or setup timezone preferences in your user account.

Time Position Orientation Groundspeed Altitude Reporting Facility
EDT Latitude Longitude Course Direction KTS MPH feet Rate Location/Type
07:03PM 36.1953 -95.8633 60° Northeast 148 170 1,300  Level Kansas City Center
07:03PM 36.1989 -95.8319 82° East 164 189 2,100 1,560 Climbing Kansas City Center
07:04PM 36.2286 -95.7633 62° Northeast 251 289 3,700 1,500 Climbing Kansas City Center
07:05PM 36.2419 -95.7344 60° Northeast 251 289 4,300 2,100 Climbing Kansas City Center
07:06PM 36.2864 -95.6414 59° Northeast 304 350 6,900 2,580 Climbing Kansas City Center
07:07PM 36.4594 -95.3016 64° Northeast  Level FlightAware Approximate
07:07PM 36.3322 -95.5489 58° Northeast 314 361 9,700  Level Kansas City Center
07:08PM 36.5188 -95.1887 60° Northeast  Level FlightAware Approximate
07:08PM 36.3856 -95.4328 60° Northeast 333 383 11,600  Level Kansas City Center
07:09PM 36.4342 -95.3319 59° Northeast 352 405 13,100 1,560 Climbing Kansas City Center
07:10PM 36.4872 -95.2208 59° Northeast 369 425 14,900 1,620 Climbing Kansas City Center
07:11PM 36.5428 -95.1000 60° Northeast 379 436 16,500 1,560 Climbing Kansas City Center
07:12PM 36.6081 -94.9619 59° Northeast 398 458 18,200 1,440 Climbing Kansas City Center
07:13PM 36.6653 -94.8414 59° Northeast 403 464 19,600 1,380 Climbing Kansas City Center
07:14PM 36.7242 -94.7153 60° Northeast 415 478 21,100 1,200 Climbing Kansas City Center
07:15PM 36.7819 -94.5894 60° Northeast 418 481 22,200 960 Climbing Kansas City Center
07:16PM 36.8497 -94.4664 55° Northeast 441 507 23,100 1,020 Climbing Kansas City Center
07:17PM 36.9389 -94.3664 42° Northeast 435 501 24,300 1,080 Climbing Kansas City Center
07:18PM 37.0283 -94.2647 42° Northeast 435 501 25,400 1,320 Climbing Kansas City Center
07:19PM 37.1367 -94.1447 41° Northeast 434 499 27,100 780 Climbing Kansas City Center
07:20PM 37.2283 -94.0378 43° Northeast 435 501 27,000 -60 Descending Kansas City Center
07:21PM 37.3289 -93.9328 40° Northeast 461 531 27,000  Level Kansas City Center
07:22PM 37.4308 -93.8283 39° Northeast 469 540 27,000  Level Kansas City Center
07:23PM 37.5256 -93.7111 44° Northeast 475 547 27,000  Level Kansas City Center
07:24PM 37.6194 -93.5967 44° Northeast 470 541 27,000  Level Kansas City Center
07:25PM 37.7136 -93.4861 43° Northeast 462 532 27,100  Climbing Kansas City Center
07:26PM 37.8069 -93.3739 44° Northeast 460 529 27,000 -60 Descending Kansas City Center
07:27PM 37.9031 -93.2644 42° Northeast 461 531 27,000  Level Kansas City Center
07:28PM 37.9981 -93.1556 42° Northeast 459 528 27,000  Level Kansas City Center
07:29PM 38.0925 -93.0431 43° Northeast 460 529 27,000  Level Kansas City Center
07:30PM 38.1897 -92.9306 42° Northeast 463 533 27,000  Level Kansas City Center
07:32PM 38.3033 -92.7906 44° Northeast 465 535 27,000  Level Kansas City Center
07:33PM 38.3978 -92.6694 45° Northeast 469 540 27,100  Climbing Kansas City Center
07:34PM 38.5008 -92.5567 41° Northeast 481 554 27,000 -60 Descending Kansas City Center
07:35PM 38.5978 -92.4408 43° Northeast 473 544 27,000  Level Kansas City Center
07:36PM 38.6939 -92.3253 43° Northeast 471 542 27,000  Level Kansas City Center
07:37PM 38.7875 -92.2119 43° Northeast 464 534 27,000  Level Kansas City Center
07:38PM 38.8819 -92.0975 43° Northeast 464 534 27,000  Level Kansas City Center
07:39PM 38.9764 -91.9842 43° Northeast 463 533 27,000  Level Kansas City Center
07:40PM 39.0694 -91.8694 44° Northeast 462 532 27,000  Level Kansas City Center
07:41PM 39.1647 -91.7544 43° Northeast 464 534 27,000  Level Kansas City Center
07:42PM 39.2725 -91.6236 43° Northeast 471 542 27,000  Level Kansas City Center
07:43PM 39.3689 -91.5044 44° Northeast 476 548 27,000  Level Kansas City Center
07:44PM 39.4653 -91.3831 44° Northeast 479 551 27,000  Level Kansas City Center
07:45PM 39.5617 -91.2647 43° Northeast 478 550 27,000  Level Kansas City Center
07:46PM 39.6586 -91.1431 44° Northeast 480 552 27,000  Level Kansas City Center
07:47PM 39.7617 -91.0250 41° Northeast 479 551 27,000  Level Kansas City Center
07:48PM 39.8633 -90.9253 37° Northeast 477 549 27,000  Level Kansas City Center
07:49PM 39.9892 -90.7983 38° Northeast 476 548 27,000  Level Kansas City Center
07:50PM 40.0928 -90.6919 38° Northeast 475 547 27,000  Level Kansas City Center
07:51PM 40.1561 -90.6292 37° Northeast 474 545 27,000  Level Chicago Center
07:52PM 40.2608 -90.5236 38° Northeast 473 544 27,000 -240 Level Chicago Center
07:53PM 40.3656 -90.4167 38° Northeast 476 548 26,600 -1,140 Descending Chicago Center
07:54PM 40.4856 -90.2919 38° Northeast 459 528 24,700 -1,260 Descending Chicago Center
07:55PM 40.5767 -90.1994 38° Northeast 426 490 24,000 -360 Descending Chicago Center
07:56PM 40.6650 -90.1081 38° Northeast 407 468 24,000  Level Chicago Center
07:57PM 40.7556 -90.0144 38° Northeast 414 476 24,000  Level Chicago Center
07:58PM 40.8472 -89.9203 38° Northeast 419 482 24,000  Level Chicago Center
07:59PM 40.9558 -89.8047 39° Northeast 419 482 24,000 -60 Level Chicago Center
08:00PM 41.0375 -89.7186 38° Northeast 415 478 23,900 -120 Descending Chicago Center
08:01PM 41.1136 -89.5964 50° Northeast 428 493 23,800 -1,320 Descending Chicago Center
08:02PM 41.1872 -89.4314 59° Northeast 431 496 21,200 -2,220 Descending Chicago Center
08:03PM 41.2472 -89.3008 59° Northeast 417 480 19,300 -1,800 Descending Chicago Center
08:04PM 41.3081 -89.1672 59° Northeast 403 464 17,500 -1,860 Descending Chicago Center
08:05PM 41.3628 -89.0456 59° Northeast 388 447 15,500 -1,800 Descending Chicago Center
08:06PM 41.4161 -88.9272 59° Northeast 378 435 13,800 -1,560 Descending Chicago Center
08:07PM 41.4672 -88.8122 59° Northeast 368 423 12,300 -1,380 Descending Chicago Center
08:08PM 41.5169 -88.7006 59° Northeast 354 407 11,000 -660 Descending Chicago Center
08:09PM 41.5678 -88.5667 63° Northeast 338 389 11,000 -360 Level Chicago Center
08:10PM 41.6128 -88.4628 60° Northeast 326 375 10,300 -540 Descending Chicago Center
08:11PM 41.6700 -88.3625 53° Northeast 336 387 10,000 -300 Descending Chicago Center
08:12PM 41.7261 -88.2642 53° Northeast 333 383 9,800 -780 Descending Chicago Center
08:13PM 41.7800 -88.1758 51° Northeast 310 357 8,500 -1,260 Descending Chicago Center
08:14PM 41.8319 -88.0864 52° Northeast 304 350 7,300 -780 Descending Chicago Center
08:16PM 41.9114 -88.0783 North 298 343 7,000 -240 Descending Chicago Center
08:16PM 41.9667 -88.0833 356° North 302 348 7,000 -1,740 Level Chicago TRACON
08:17PM 42.0333 -88.1333 331° Northwest 279 321 4,500 -2,220 Descending Chicago TRACON
08:18PM 42.0833 -88.0667 45° Northeast 275 316 2,600 -1,080 Descending Chicago TRACON
08:19PM 42.0500 -88.0000 124° Southeast 198 228 2,400 -240 Descending Chicago TRACON